Time;durP1;ratioP1;P1;durP2;ratioP2;P2;SDS_P1;SDS_P2;PMS_P1;PMS_P2;Temp;Humidity;BMP_temperature;BMP_pressure;BME280_temperature;BME280_humidity;BME280_pressure;Samples;Min_cycle;Max_cycle;Signal;HPM_P1;HPM_P2
2021/01/31 00:00:18;;;;;;;61.95;38.42;;;;;;;;;;5039578;28;20054;-81
2021/01/31 00:02:44;;;;;;;62.75;37.83;;;;;;;;;;5057766;28;20052;-82
2021/01/31 00:05:10;;;;;;;54.83;33.35;;;;;;;;;;5056860;28;20425;-81
2021/01/31 00:07:37;;;;;;;53.50;32.65;;;;;;;;;;5050116;28;20029;-81
2021/01/31 00:10:03;;;;;;;58.17;36.20;;;;;;;;;;5041993;28;20030;-81
2021/01/31 00:12:29;;;;;;;110.70;57.55;;;;;;;;;;5038062;28;20032;-82
2021/01/31 00:14:55;;;;;;;101.10;52.65;;;;;;;;;;5036528;28;20044;-82
2021/01/31 00:17:21;;;;;;;80.82;44.28;;;;;;;;;;5054170;28;20072;-82
2021/01/31 00:19:47;;;;;;;104.80;46.75;;;;;;;;;;5038971;28;20036;-82
2021/01/31 00:22:13;;;;;;;96.80;45.67;;;;;;;;;;5039501;28;20127;-82
2021/01/31 00:24:39;;;;;;;163.45;68.18;;;;;;;;;;5038424;28;20025;-82
2021/01/31 00:27:05;;;;;;;105.43;49.22;;;;;;;;;;5051323;28;20467;-83
2021/01/31 00:29:31;;;;;;;91.32;44.45;;;;;;;;;;5038949;28;20037;-81
2021/01/31 00:31:58;;;;;;;120.22;59.13;;;;;;;;;;5036964;28;20431;-83
2021/01/31 00:34:24;;;;;;;70.32;40.25;;;;;;;;;;5039161;28;20441;-82
2021/01/31 00:36:50;;;;;;;49.70;31.10;;;;;;;;;;5045653;28;20316;-82
2021/01/31 00:39:16;;;;;;;46.38;29.25;;;;;;;;;;5038530;28;20029;-82
2021/01/31 00:41:46;;;;;;;60.85;33.95;;;;;;;;;;5056949;28;20074;-82
2021/01/31 00:44:12;;;;;;;82.32;40.83;;;;;;;;;;5057065;28;20411;-82
2021/01/31 00:46:39;;;;;;;92.22;44.83;;;;;;;;;;5035897;28;20301;-82
2021/01/31 00:49:06;;;;;;;88.72;46.10;;;;;;;;;;5037155;28;20056;-81
2021/01/31 00:51:32;;;;;;;69.30;38.22;;;;;;;;;;5036091;28;20300;-81
2021/01/31 00:53:58;;;;;;;85.68;45.10;;;;;;;;;;5037258;28;20033;-83
2021/01/31 00:56:24;;;;;;;96.82;48.83;;;;;;;;;;5046578;28;20318;-82
2021/01/31 01:01:54;;;;;;;86.35;42.22;;;;;;;;;;5041847;28;20042;-82
2021/01/31 01:04:20;;;;;;;299.05;91.82;;;;;;;;;;5037019;28;20324;-81
2021/01/31 01:06:46;;;;;;;349.33;101.82;;;;;;;;;;5047075;28;20032;-81
2021/01/31 01:09:13;;;;;;;153.85;57.42;;;;;;;;;;5045885;28;20028;-81
2021/01/31 01:11:40;;;;;;;104.30;46.63;;;;;;;;;;5042766;28;20035;-81
2021/01/31 01:14:06;;;;;;;120.25;50.13;;;;;;;;;;5041439;28;20041;-82
2021/01/31 01:16:33;;;;;;;136.48;57.60;;;;;;;;;;5039508;28;20362;-81
2021/01/31 01:18:59;;;;;;;175.35;70.07;;;;;;;;;;5047696;28;20112;-81
2021/01/31 01:21:25;;;;;;;170.70;67.38;;;;;;;;;;5060877;28;20025;-81
2021/01/31 01:23:51;;;;;;;128.70;56.65;;;;;;;;;;5042970;28;20028;-81
2021/01/31 01:26:17;;;;;;;188.50;69.03;;;;;;;;;;5049238;28;20032;-81
2021/01/31 01:28:43;;;;;;;120.28;54.42;;;;;;;;;;5045509;28;20426;-81
2021/01/31 01:31:09;;;;;;;90.03;47.15;;;;;;;;;;5059365;28;20053;-81
2021/01/31 01:33:36;;;;;;;79.65;46.67;;;;;;;;;;5042829;28;20075;-81
2021/01/31 01:36:02;;;;;;;89.32;45.95;;;;;;;;;;5060827;28;20036;-81
2021/01/31 01:38:28;;;;;;;95.50;45.95;;;;;;;;;;5058307;28;20053;-81
2021/01/31 01:40:55;;;;;;;106.00;47.40;;;;;;;;;;5060801;28;20032;-81
2021/01/31 01:43:21;;;;;;;95.15;45.10;;;;;;;;;;5060055;28;20427;-81
2021/01/31 01:46:14;;;;;;;85.70;43.22;;;;;;;;;;5060032;28;20029;-81
2021/01/31 01:48:40;;;;;;;74.68;40.45;;;;;;;;;;4960150;29;20115;-81
2021/01/31 01:51:06;;;;;;;65.05;36.75;;;;;;;;;;4960252;29;20042;-81
2021/01/31 01:53:32;;;;;;;65.53;36.97;;;;;;;;;;4960362;29;20039;-81
2021/01/31 01:56:05;;;;;;;57.83;36.00;;;;;;;;;;4944301;29;20023;-82
2021/01/31 01:58:31;;;;;;;53.22;33.33;;;;;;;;;;4959784;29;20031;-82
2021/01/31 02:00:58;;;;;;;53.40;33.67;;;;;;;;;;4960253;29;20118;-82
2021/01/31 02:03:26;;;;;;;56.88;35.22;;;;;;;;;;4959878;29;20489;-82
2021/01/31 02:05:58;;;;;;;57.90;35.35;;;;;;;;;;4943255;28;20426;-82
2021/01/31 02:08:24;;;;;;;55.10;36.75;;;;;;;;;;4959569;29;20492;-82
2021/01/31 02:10:51;;;;;;;60.33;37.08;;;;;;;;;;4960028;29;20031;-81
2021/01/31 02:13:17;;;;;;;53.17;35.97;;;;;;;;;;4959877;29;20067;-81
2021/01/31 02:15:45;;;;;;;58.20;37.13;;;;;;;;;;4959722;29;20023;-82
2021/01/31 02:18:36;;;;;;;61.17;37.65;;;;;;;;;;4959754;29;20055;-82
2021/01/31 02:21:17;;;;;;;64.25;39.92;;;;;;;;;;4943783;29;20038;-82
2021/01/31 02:23:49;;;;;;;61.00;40.95;;;;;;;;;;4943288;29;20117;-82
2021/01/31 02:26:41;;;;;;;58.50;39.35;;;;;;;;;;5043967;28;20326;-82
2021/01/31 02:29:25;;;;;;;59.13;38.38;;;;;;;;;;5054335;28;20033;-81
2021/01/31 02:32:11;;;;;;;63.55;40.33;;;;;;;;;;5058744;28;20047;-82
2021/01/31 02:34:37;;;;;;;55.97;36.35;;;;;;;;;;4959363;29;20031;-81
2021/01/31 02:37:15;;;;;;;52.08;33.78;;;;;;;;;;4942593;29;20140;-81
2021/01/31 02:40:13;;;;;;;55.28;35.25;;;;;;;;;;4959174;29;20054;-81
2021/01/31 02:42:39;;;;;;;54.97;34.13;;;;;;;;;;4883618;29;20052;-81
2021/01/31 02:45:12;;;;;;;54.88;34.42;;;;;;;;;;4879828;29;20037;-81
2021/01/31 02:47:42;;;;;;;60.50;36.22;;;;;;;;;;4880989;29;20149;-81
2021/01/31 02:50:10;;;;;;;56.42;34.80;;;;;;;;;;4883163;29;20044;-81
2021/01/31 02:52:39;;;;;;;59.83;34.15;;;;;;;;;;4873592;29;20049;-82
2021/01/31 02:55:26;;;;;;;55.25;34.55;;;;;;;;;;4883446;29;20105;-82
2021/01/31 02:58:00;;;;;;;66.90;39.25;;;;;;;;;;4883170;29;20036;-82
2021/01/31 03:00:28;;;;;;;58.67;37.72;;;;;;;;;;4883170;29;20142;-82
2021/01/31 03:03:05;;;;;;;62.13;36.55;;;;;;;;;;4883123;29;20089;-83
2021/01/31 03:05:33;;;;;;;59.55;35.00;;;;;;;;;;4883324;29;20339;-83
2021/01/31 03:08:14;;;;;;;55.35;33.70;;;;;;;;;;4880021;29;20040;-82
2021/01/31 03:10:43;;;;;;;55.83;33.03;;;;;;;;;;4890036;28;20056;-83
2021/01/31 03:13:28;;;;;;;52.55;31.48;;;;;;;;;;4978440;28;20106;-82
2021/01/31 03:16:02;;;;;;;50.38;32.22;;;;;;;;;;4961656;28;20045;-81
2021/01/31 03:18:32;;;;;;;49.03;31.90;;;;;;;;;;5017417;28;20102;-82
2021/01/31 03:21:05;;;;;;;52.33;30.55;;;;;;;;;;5056723;28;20028;-83
2021/01/31 03:23:31;;;;;;;;;;;;;;;;;;5058894;28;20028;-83
2021/01/31 03:25:59;;;;;;;49.83;30.52;;;;;;;;;;5058647;28;19905;-83
2021/01/31 03:31:30;;;;;;;43.33;27.73;;;;;;;;;;5041847;28;20044;-83
2021/01/31 03:33:59;;;;;;;36.58;24.77;;;;;;;;;;5058255;28;20028;-82
2021/01/31 03:36:26;;;;;;;37.47;24.52;;;;;;;;;;5058162;28;20067;-82
2021/01/31 03:38:53;;;;;;;40.65;24.70;;;;;;;;;;5021881;28;20056;-81
2021/01/31 03:41:21;;;;;;;38.20;24.17;;;;;;;;;;5057343;28;20033;-82
2021/01/31 03:43:47;;;;;;;44.90;23.90;;;;;;;;;;5056007;28;20036;-81
2021/01/31 03:46:23;;;;;;;36.08;22.42;;;;;;;;;;5047444;28;20025;-81
2021/01/31 03:48:52;;;;;;;34.10;21.17;;;;;;;;;;5040222;28;20029;-81
2021/01/31 03:51:19;;;;;;;30.92;19.30;;;;;;;;;;5036891;28;20029;-83
2021/01/31 03:53:45;;;;;;;29.40;17.05;;;;;;;;;;5044693;28;20477;-83
2021/01/31 03:56:13;;;;;;;20.45;14.48;;;;;;;;;;5046326;28;20027;-83
2021/01/31 03:58:59;;;;;;;21.65;12.73;;;;;;;;;;5058222;28;20033;-83
2021/01/31 04:01:26;;;;;;;17.77;11.68;;;;;;;;;;5057688;28;20036;-83
2021/01/31 04:04:01;;;;;;;15.15;10.23;;;;;;;;;;5058262;28;20100;-83
2021/01/31 04:06:29;;;;;;;14.65;10.05;;;;;;;;;;5057794;28;20429;-83
2021/01/31 04:08:58;;;;;;;12.38;8.63;;;;;;;;;;5057868;28;20108;-83
2021/01/31 04:11:33;;;;;;;11.43;8.82;;;;;;;;;;5039795;28;20353;-82
2021/01/31 04:14:02;;;;;;;10.18;7.45;;;;;;;;;;5057537;28;20047;-82
2021/01/31 04:16:32;;;;;;;9.95;7.47;;;;;;;;;;5057780;28;20072;-82
2021/01/31 04:18:58;;;;;;;9.68;7.00;;;;;;;;;;5038715;28;20032;-82
2021/01/31 04:21:24;;;;;;;8.65;6.80;;;;;;;;;;5048562;28;20029;-82
2021/01/31 04:23:50;;;;;;;10.13;7.40;;;;;;;;;;5057162;28;20018;-82
2021/01/31 04:26:16;;;;;;;10.82;7.32;;;;;;;;;;5057674;28;20124;-82
2021/01/31 04:28:42;;;;;;;10.40;8.30;;;;;;;;;;5057508;28;20021;-82
2021/01/31 04:31:08;;;;;;;11.88;8.95;;;;;;;;;;5056647;28;20052;-82
2021/01/31 04:33:34;;;;;;;13.60;9.43;;;;;;;;;;5042469;28;20331;-82
2021/01/31 04:36:00;;;;;;;16.65;11.30;;;;;;;;;;5038617;28;20323;-82
2021/01/31 04:38:26;;;;;;;19.58;13.02;;;;;;;;;;5039302;28;20106;-83
2021/01/31 04:40:52;;;;;;;18.88;12.85;;;;;;;;;;5057026;28;20063;-83
2021/01/31 04:43:19;;;;;;;23.70;15.52;;;;;;;;;;5041028;28;20100;-83
2021/01/31 04:48:55;;;;;;;38.72;22.95;;;;;;;;;;5037672;28;20044;-83
2021/01/31 04:51:22;;;;;;;46.85;28.17;;;;;;;;;;5040462;28;20020;-81
2021/01/31 04:54:00;;;;;;;47.20;28.30;;;;;;;;;;5055251;28;20131;-82
2021/01/31 04:56:32;;;;;;;47.15;27.73;;;;;;;;;;5057064;28;20124;-82
2021/01/31 04:59:15;;;;;;;46.70;28.40;;;;;;;;;;5055908;28;20033;-82
2021/01/31 05:01:41;;;;;;;;;;;;;;;;;;5055906;28;20029;-82
2021/01/31 05:04:11;;;;;;;44.38;27.15;;;;;;;;;;5055416;28;19920;-82
2021/01/31 05:06:45;;;;;;;43.75;26.30;;;;;;;;;;5056793;28;20103;-83
2021/01/31 05:09:17;;;;;;;42.60;26.48;;;;;;;;;;5056964;28;20028;-83
2021/01/31 05:11:58;;;;;;;38.53;23.70;;;;;;;;;;5057202;28;20032;-82
2021/01/31 05:14:32;;;;;;;35.28;21.35;;;;;;;;;;5054594;28;20702;-82
2021/01/31 05:16:58;;;;;;;33.28;20.05;;;;;;;;;;5056737;28;20029;-82
2021/01/31 05:19:29;;;;;;;31.52;19.70;;;;;;;;;;5056700;28;20032;-82
2021/01/31 05:21:56;;;;;;;34.07;19.10;;;;;;;;;;5056687;28;20021;-82
2021/01/31 05:24:22;;;;;;;32.00;20.45;;;;;;;;;;5046015;28;20021;-82
2021/01/31 05:26:56;;;;;;;30.67;19.73;;;;;;;;;;5038871;28;20025;-82
2021/01/31 05:29:32;;;;;;;28.88;18.80;;;;;;;;;;5056366;28;20055;-82
2021/01/31 05:32:03;;;;;;;31.48;19.95;;;;;;;;;;5056091;28;20053;-83
2021/01/31 05:34:37;;;;;;;36.15;20.95;;;;;;;;;;5056357;28;20120;-83
2021/01/31 05:37:05;;;;;;;38.50;20.90;;;;;;;;;;5038774;28;20124;-83
2021/01/31 05:39:35;;;;;;;34.15;19.20;;;;;;;;;;5056779;28;20033;-83
2021/01/31 05:42:04;;;;;;;31.40;18.95;;;;;;;;;;5055828;28;20117;-83
2021/01/31 05:44:31;;;;;;;36.92;20.27;;;;;;;;;;5037145;28;20032;-83
2021/01/31 05:46:59;;;;;;;38.47;21.52;;;;;;;;;;5036311;28;20037;-83
2021/01/31 05:49:42;;;;;;;35.88;20.17;;;;;;;;;;5036837;28;20029;-83
2021/01/31 05:52:17;;;;;;;33.65;19.98;;;;;;;;;;5036913;28;20124;-83
2021/01/31 05:54:43;;;;;;;29.02;17.67;;;;;;;;;;5036972;28;20021;-83
2021/01/31 05:57:27;;;;;;;28.95;17.00;;;;;;;;;;5034730;28;20319;-83
2021/01/31 05:59:53;;;;;;;33.25;19.55;;;;;;;;;;5056397;28;20410;-83
2021/01/31 06:02:22;;;;;;;33.17;18.30;;;;;;;;;;5039719;28;20035;-82
2021/01/31 06:04:48;;;;;;;29.42;17.85;;;;;;;;;;5057951;28;20017;-83
2021/01/31 06:07:18;;;;;;;31.42;18.67;;;;;;;;;;5058378;28;20029;-83
2021/01/31 06:09:48;;;;;;;32.05;18.27;;;;;;;;;;5060130;28;20036;-83
2021/01/31 06:12:14;;;;;;;31.20;18.35;;;;;;;;;;5055833;28;20040;-83
2021/01/31 06:14:42;;;;;;;30.40;18.48;;;;;;;;;;5040061;28;20045;-83
2021/01/31 06:17:22;;;;;;;30.65;17.65;;;;;;;;;;5041173;28;20086;-82
2021/01/31 06:19:49;;;;;;;30.58;18.05;;;;;;;;;;5059173;28;20032;-82
2021/01/31 06:22:15;;;;;;;32.97;19.15;;;;;;;;;;5057995;28;20025;-82
2021/01/31 06:24:41;;;;;;;29.23;18.33;;;;;;;;;;5059382;28;20021;-81
2021/01/31 06:27:07;;;;;;;33.70;20.20;;;;;;;;;;5058819;28;20032;-82
2021/01/31 06:30:05;;;;;;;36.47;21.73;;;;;;;;;;5041975;28;20191;-82
2021/01/31 06:32:31;;;;;;;44.17;22.83;;;;;;;;;;5043139;28;20049;-83
2021/01/31 06:35:00;;;;;;;36.10;20.70;;;;;;;;;;5055739;28;20033;-83
2021/01/31 06:37:44;;;;;;;38.55;21.42;;;;;;;;;;5059719;28;20029;-84
2021/01/31 06:40:18;;;;;;;34.95;19.88;;;;;;;;;;5058410;28;20029;-84
2021/01/31 06:43:00;;;;;;;35.92;21.05;;;;;;;;;;5038400;28;20079;-84
2021/01/31 06:45:44;;;;;;;39.42;21.52;;;;;;;;;;5039598;28;20112;-83
2021/01/31 06:48:28;;;;;;;39.88;22.10;;;;;;;;;;5046113;28;20017;-84
2021/01/31 06:51:09;;;;;;;50.50;26.70;;;;;;;;;;5039970;28;20101;-84
2021/01/31 06:53:44;;;;;;;57.67;29.13;;;;;;;;;;5041337;28;20470;-84
2021/01/31 06:56:27;;;;;;;42.38;22.50;;;;;;;;;;5058327;28;20032;-84
2021/01/31 06:59:00;;;;;;;45.55;24.77;;;;;;;;;;5059026;28;20025;-84
2021/01/31 07:01:41;;;;;;;44.55;24.08;;;;;;;;;;5059028;28;20056;-84
2021/01/31 07:04:07;;;;;;;44.92;24.33;;;;;;;;;;5021817;28;20041;-84
2021/01/31 07:06:41;;;;;;;37.75;21.05;;;;;;;;;;5044400;28;20299;-84
2021/01/31 07:09:13;;;;;;;39.22;23.63;;;;;;;;;;5039106;28;20041;-83
2021/01/31 07:11:39;;;;;;;46.30;25.98;;;;;;;;;;5039347;28;20025;-82
2021/01/31 07:23:19;;;;;;;35.47;20.50;;;;;;;;;;5052120;28;20112;-84
2021/01/31 07:25:48;;;;;;;32.72;20.30;;;;;;;;;;5058288;28;20033;-84
2021/01/31 07:28:18;;;;;;;38.53;20.85;;;;;;;;;;5040379;28;20055;-83
2021/01/31 07:30:48;;;;;;;35.95;20.48;;;;;;;;;;5037161;28;21014;-83
2021/01/31 07:33:16;;;;;;;33.33;20.83;;;;;;;;;;5038857;28;20039;-83
2021/01/31 07:35:54;;;;;;;31.95;19.98;;;;;;;;;;5039072;28;20026;-86
2021/01/31 07:38:23;;;;;;;32.40;19.75;;;;;;;;;;5038699;28;20041;-85
2021/01/31 07:40:53;;;;;;;36.85;20.88;;;;;;;;;;5020782;28;20467;-84
2021/01/31 07:43:19;;;;;;;36.92;22.23;;;;;;;;;;5038251;28;20044;-81
2021/01/31 07:46:05;;;;;;;34.00;21.00;;;;;;;;;;5035133;28;20101;-84
2021/01/31 07:48:53;;;;;;;41.40;22.85;;;;;;;;;;5032786;28;20029;-84
2021/01/31 07:51:29;;;;;;;41.60;23.55;;;;;;;;;;5038692;28;20048;-85
2021/01/31 07:53:55;;;;;;;35.30;22.10;;;;;;;;;;5020261;28;20033;-85
2021/01/31 07:56:24;;;;;;;38.47;22.55;;;;;;;;;;5037798;28;20434;-84
2021/01/31 07:58:50;;;;;;;33.28;19.98;;;;;;;;;;5038506;28;20328;-85
2021/01/31 08:04:20;;;;;;;35.03;21.05;;;;;;;;;;5038288;28;20076;-84
2021/01/31 08:06:46;;;;;;;38.67;23.98;;;;;;;;;;5038214;28;20022;-85
2021/01/31 08:09:25;;;;;;;35.15;21.40;;;;;;;;;;5038224;28;20439;-86
2021/01/31 08:11:54;;;;;;;44.00;25.33;;;;;;;;;;5037885;28;20033;-84
2021/01/31 08:14:39;;;;;;;51.75;27.92;;;;;;;;;;5020371;28;20029;-86
2021/01/31 08:17:05;;;;;;;53.63;29.23;;;;;;;;;;5038180;28;20028;-83
2021/01/31 08:19:32;;;;;;;43.83;24.35;;;;;;;;;;5038191;28;20032;-85
2021/01/31 08:21:59;;;;;;;39.08;23.48;;;;;;;;;;5038193;28;20045;-84
2021/01/31 08:24:44;;;;;;;41.85;23.33;;;;;;;;;;5038072;28;20100;-84
2021/01/31 08:27:13;;;;;;;42.45;24.33;;;;;;;;;;5037787;28;20087;-84
2021/01/31 08:29:39;;;;;;;51.25;29.23;;;;;;;;;;5037634;28;20033;-83
2021/01/31 08:32:07;;;;;;;57.42;32.90;;;;;;;;;;5035843;28;20443;-83
2021/01/31 08:34:53;;;;;;;57.33;33.97;;;;;;;;;;5027929;28;20034;-84
2021/01/31 08:37:23;;;;;;;40.70;24.92;;;;;;;;;;5015136;28;20021;-83
2021/01/31 08:39:49;;;;;;;49.22;27.95;;;;;;;;;;5026223;28;20022;-83
2021/01/31 08:42:16;;;;;;;56.22;29.80;;;;;;;;;;5021154;28;20029;-80
2021/01/31 08:44:52;;;;;;;45.85;26.08;;;;;;;;;;5036146;28;20063;-84
2021/01/31 08:47:18;;;;;;;35.78;20.27;;;;;;;;;;5008310;28;20032;-82
2021/01/31 08:49:54;;;;;;;30.95;18.88;;;;;;;;;;5033916;28;20407;-82
2021/01/31 08:52:23;;;;;;;37.33;21.27;;;;;;;;;;5029222;28;20034;-83
2021/01/31 08:54:59;;;;;;;33.40;20.42;;;;;;;;;;5000995;28;20394;-83
2021/01/31 08:57:26;;;;;;;47.03;26.25;;;;;;;;;;4999277;28;20424;-83
2021/01/31 08:59:52;;;;;;;55.38;30.60;;;;;;;;;;5017235;28;20079;-83
2021/01/31 09:02:18;;;;;;;71.40;32.53;;;;;;;;;;5017668;28;20030;-83
2021/01/31 09:04:44;;;;;;;82.93;36.38;;;;;;;;;;5017491;28;20046;-83
2021/01/31 09:07:11;;;;;;;66.05;32.78;;;;;;;;;;5017471;28;20022;-83
2021/01/31 09:09:38;;;;;;;84.80;36.50;;;;;;;;;;5000150;28;20328;-83
2021/01/31 09:12:06;;;;;;;98.28;43.75;;;;;;;;;;4999927;28;20026;-83
2021/01/31 09:14:34;;;;;;;67.43;35.22;;;;;;;;;;5017224;28;20032;-82
2021/01/31 09:17:07;;;;;;;39.83;23.58;;;;;;;;;;5017109;28;20035;-82
2021/01/31 09:19:34;;;;;;;59.92;30.85;;;;;;;;;;5017120;28;20021;-82
2021/01/31 09:22:03;;;;;;;66.72;31.35;;;;;;;;;;5017202;28;20073;-83
2021/01/31 09:24:31;;;;;;;132.70;49.15;;;;;;;;;;5017469;28;20101;-82
2021/01/31 09:26:57;;;;;;;129.75;47.47;;;;;;;;;;5017305;28;20045;-82
2021/01/31 09:29:25;;;;;;;111.05;47.83;;;;;;;;;;5017178;28;20054;-82
2021/01/31 09:31:56;;;;;;;68.97;35.60;;;;;;;;;;5004579;28;20070;-82
2021/01/31 09:34:26;;;;;;;48.13;25.98;;;;;;;;;;5017153;28;20026;-82
2021/01/31 09:37:12;;;;;;;54.45;27.73;;;;;;;;;;5036901;28;20026;-83
2021/01/31 09:39:39;;;;;;;39.67;19.50;;;;;;;;;;5041219;28;20029;-89
2021/01/31 09:42:06;;;;;;;42.10;21.70;;;;;;;;;;5041224;28;20037;-89
2021/01/31 09:44:34;;;;;;;36.85;20.02;;;;;;;;;;5023789;28;20026;-90
2021/01/31 09:47:01;;;;;;;40.65;21.50;;;;;;;;;;5023444;28;20022;-90
2021/01/31 09:49:28;;;;;;;69.90;32.35;;;;;;;;;;5023915;28;20032;-90
2021/01/31 09:52:04;;;;;;;66.65;34.20;;;;;;;;;;5041317;28;20100;-89
2021/01/31 09:54:31;;;;;;;55.08;29.85;;;;;;;;;;5041310;28;20029;-88
2021/01/31 09:56:58;;;;;;;48.40;27.55;;;;;;;;;;5040886;28;20040;-89
2021/01/31 09:59:29;;;;;;;48.63;28.90;;;;;;;;;;5041042;28;20067;-88
2021/01/31 10:02:17;;;;;;;36.47;21.33;;;;;;;;;;5041158;28;20029;-89
2021/01/31 10:04:43;;;;;;;24.80;16.30;;;;;;;;;;5040793;28;20029;-88
2021/01/31 10:07:14;;;;;;;26.20;16.25;;;;;;;;;;5023498;28;20132;-89
2021/01/31 10:09:43;;;;;;;30.25;18.30;;;;;;;;;;5040370;28;20045;-87
2021/01/31 10:12:38;;;;;;;26.95;17.08;;;;;;;;;;5040978;28;20022;-88
2021/01/31 10:15:08;;;;;;;28.90;18.70;;;;;;;;;;4944678;29;20074;-87
2021/01/31 10:20:56;;;;;;;27.08;16.08;;;;;;;;;;4960810;29;20070;-88
2021/01/31 10:23:27;;;;;;;26.02;16.63;;;;;;;;;;4944249;29;20035;-92
2021/01/31 10:25:58;;;;;;;26.25;16.65;;;;;;;;;;4960572;29;20474;-87
2021/01/31 10:28:37;;;;;;;26.35;16.65;;;;;;;;;;4960603;28;20114;-88
2021/01/31 10:34:38;;;;;;;27.30;17.33;;;;;;;;;;4959395;29;20174;-88
2021/01/31 10:37:12;;;;;;;30.05;18.52;;;;;;;;;;4960598;29;20027;-87
2021/01/31 10:39:38;;;;;;;27.85;16.23;;;;;;;;;;4960438;29;20035;-87
2021/01/31 10:42:04;;;;;;;23.55;15.02;;;;;;;;;;4972025;28;20031;-87
2021/01/31 10:44:30;;;;;;;29.42;14.50;;;;;;;;;;4954602;29;20063;-87
2021/01/31 10:49:59;;;;;;;;;;;;;;;;;;4941308;29;20061;-87
2021/01/31 10:52:25;;;;;;;35.42;19.75;;;;;;;;;;5012432;28;19905;-87
2021/01/31 10:54:51;;;;;;;35.75;20.10;;;;;;;;;;5025117;28;20048;-87
2021/01/31 10:57:17;;;;;;;33.67;19.05;;;;;;;;;;5002150;28;20037;-87
2021/01/31 10:59:43;;;;;;;23.90;15.27;;;;;;;;;;5019880;28;20049;-87
2021/01/31 11:08:17;;;;;;;22.55;14.93;;;;;;;;;;5020076;28;20036;-87
2021/01/31 11:10:43;;;;;;;24.95;16.23;;;;;;;;;;5015962;28;20412;-87
2021/01/31 11:13:09;;;;;;;25.20;16.33;;;;;;;;;;5037748;28;20049;-88
2021/01/31 11:18:38;;;;;;;29.48;20.40;;;;;;;;;;5019975;28;20312;-88
2021/01/31 11:21:05;;;;;;;25.90;16.05;;;;;;;;;;5019916;28;20049;-87
2021/01/31 11:23:31;;;;;;;27.77;16.58;;;;;;;;;;5019894;28;20018;-88
2021/01/31 11:25:57;;;;;;;25.55;15.80;;;;;;;;;;5019502;28;20462;-87
2021/01/31 11:28:23;;;;;;;32.22;19.77;;;;;;;;;;5002045;28;20052;-87
2021/01/31 11:33:55;;;;;;;29.33;18.33;;;;;;;;;;5019518;28;20092;-87
2021/01/31 11:36:21;;;;;;;27.58;17.13;;;;;;;;;;5039257;28;20049;-85
2021/01/31 11:38:47;;;;;;;25.83;15.93;;;;;;;;;;5021586;28;20049;-88
2021/01/31 11:41:14;;;;;;;24.55;14.60;;;;;;;;;;5038954;28;20100;-88
2021/01/31 11:43:40;;;;;;;33.70;18.63;;;;;;;;;;5038889;28;20025;-88
2021/01/31 11:46:06;;;;;;;87.20;32.92;;;;;;;;;;5021430;28;20025;-89
2021/01/31 11:48:32;;;;;;;77.88;35.17;;;;;;;;;;5021526;28;20025;-89
2021/01/31 11:50:58;;;;;;;50.88;25.80;;;;;;;;;;5021308;28;20076;-89
2021/01/31 11:53:24;;;;;;;63.15;33.45;;;;;;;;;;5021306;28;20026;-88
2021/01/31 11:55:50;;;;;;;56.70;31.50;;;;;;;;;;5039013;28;20032;-88
2021/01/31 11:58:17;;;;;;;37.17;22.17;;;;;;;;;;5038799;28;20041;-89
2021/01/31 12:00:43;;;;;;;29.38;18.80;;;;;;;;;;5038101;28;20029;-89
2021/01/31 12:03:10;;;;;;;31.63;18.58;;;;;;;;;;5038380;28;20029;-87
2021/01/31 12:05:36;;;;;;;29.52;17.70;;;;;;;;;;5038507;28;20028;-87
2021/01/31 12:08:03;;;;;;;30.50;18.00;;;;;;;;;;5020455;28;20034;-87
2021/01/31 12:10:31;;;;;;;28.20;16.98;;;;;;;;;;5038312;28;20022;-87
2021/01/31 12:12:57;;;;;;;24.70;16.00;;;;;;;;;;5037855;28;20034;-88
2021/01/31 12:15:24;;;;;;;25.88;15.85;;;;;;;;;;5020199;28;20043;-88
2021/01/31 12:20:54;;;;;;;28.58;16.73;;;;;;;;;;5038110;28;20069;-87
2021/01/31 12:23:20;;;;;;;31.08;17.65;;;;;;;;;;5038022;28;20083;-88
2021/01/31 12:25:46;;;;;;;29.58;17.25;;;;;;;;;;5038125;28;20045;-88
2021/01/31 12:28:12;;;;;;;28.15;17.75;;;;;;;;;;5020797;28;20069;-89
2021/01/31 12:30:39;;;;;;;28.20;16.98;;;;;;;;;;5038525;28;20037;-88
2021/01/31 12:33:05;;;;;;;28.83;17.67;;;;;;;;;;5037762;28;20033;-88
2021/01/31 12:35:32;;;;;;;26.75;16.63;;;;;;;;;;5038279;28;20044;-88
2021/01/31 12:37:58;;;;;;;30.10;16.02;;;;;;;;;;5037858;28;20112;-89
2021/01/31 12:40:25;;;;;;;23.85;14.77;;;;;;;;;;5037777;28;20034;-88
2021/01/31 12:42:51;;;;;;;20.92;13.80;;;;;;;;;;5038174;28;20018;-89
2021/01/31 12:45:19;;;;;;;21.67;13.07;;;;;;;;;;5036472;28;20025;-89
2021/01/31 12:47:45;;;;;;;21.83;13.73;;;;;;;;;;5037985;28;20029;-88
2021/01/31 12:50:11;;;;;;;20.75;13.43;;;;;;;;;;5037503;28;20033;-88
2021/01/31 12:52:38;;;;;;;20.40;13.73;;;;;;;;;;5038146;28;20037;-88
2021/01/31 12:55:06;;;;;;;23.58;13.13;;;;;;;;;;5038059;28;20068;-88
2021/01/31 12:57:32;;;;;;;19.90;12.82;;;;;;;;;;5036703;28;20087;-89
2021/01/31 12:59:59;;;;;;;20.73;12.43;;;;;;;;;;5038528;28;20025;-87
2021/01/31 13:05:43;;;;;;;24.73;14.60;;;;;;;;;;5036878;28;20434;-82
2021/01/31 13:08:09;;;;;;;31.40;17.50;;;;;;;;;;5036936;28;20479;-84
2021/01/31 13:10:35;;;;;;;31.45;17.95;;;;;;;;;;5036876;28;20324;-83
2021/01/31 13:13:02;;;;;;;24.77;14.85;;;;;;;;;;5043663;28;20056;-84
2021/01/31 13:15:28;;;;;;;26.45;15.57;;;;;;;;;;5042580;28;20029;-84
2021/01/31 13:17:55;;;;;;;23.40;14.23;;;;;;;;;;5043640;28;20033;-83
2021/01/31 13:20:21;;;;;;;22.27;14.65;;;;;;;;;;5026662;28;20384;-83
2021/01/31 13:22:47;;;;;;;22.73;14.40;;;;;;;;;;5024068;28;20014;-83
2021/01/31 13:25:14;;;;;;;23.40;15.55;;;;;;;;;;5023712;28;20025;-81
2021/01/31 13:27:40;;;;;;;25.77;15.45;;;;;;;;;;5030751;28;20032;-83
2021/01/31 13:30:08;;;;;;;23.98;14.27;;;;;;;;;;5033445;28;20112;-83
2021/01/31 13:32:34;;;;;;;24.45;15.75;;;;;;;;;;5035284;28;20033;-83
2021/01/31 13:35:02;;;;;;;25.13;15.60;;;;;;;;;;5034204;28;20193;-82
2021/01/31 13:37:28;;;;;;;23.98;14.27;;;;;;;;;;5033693;28;20036;-84
2021/01/31 13:39:54;;;;;;;26.38;14.82;;;;;;;;;;5030867;28;20366;-83
2021/01/31 13:42:21;;;;;;;32.33;18.23;;;;;;;;;;5031041;28;20320;-82
2021/01/31 13:44:47;;;;;;;30.35;18.27;;;;;;;;;;5034620;28;20045;-83
2021/01/31 13:47:13;;;;;;;26.80;15.23;;;;;;;;;;5030007;28;20090;-83
2021/01/31 13:49:40;;;;;;;26.08;14.15;;;;;;;;;;5033253;28;20025;-82
2021/01/31 13:52:06;;;;;;;29.85;17.00;;;;;;;;;;5030695;28;20426;-83
2021/01/31 13:54:32;;;;;;;28.00;16.45;;;;;;;;;;5034995;28;20420;-84
2021/01/31 13:56:58;;;;;;;31.38;18.42;;;;;;;;;;5030065;28;20030;-81
2021/01/31 13:59:24;;;;;;;31.88;18.63;;;;;;;;;;5025560;28;20084;-83
2021/01/31 14:01:52;;;;;;;37.97;20.00;;;;;;;;;;5025859;28;20453;-84
2021/01/31 14:04:21;;;;;;;38.38;19.88;;;;;;;;;;5042103;28;20025;-84
2021/01/31 14:06:47;;;;;;;30.42;17.63;;;;;;;;;;5043281;28;20025;-83
2021/01/31 14:09:14;;;;;;;33.53;18.42;;;;;;;;;;5043256;28;20045;-83
2021/01/31 14:11:40;;;;;;;43.53;22.98;;;;;;;;;;5041677;28;20072;-85
2021/01/31 14:14:06;;;;;;;51.42;26.35;;;;;;;;;;5043008;28;20458;-86
2021/01/31 14:16:32;;;;;;;28.60;16.00;;;;;;;;;;5043462;28;20030;-85
2021/01/31 14:18:58;;;;;;;33.95;18.83;;;;;;;;;;5043186;28;20070;-85
2021/01/31 14:21:27;;;;;;;29.48;16.65;;;;;;;;;;5043312;28;20025;-85
2021/01/31 14:23:53;;;;;;;26.73;14.63;;;;;;;;;;5040719;28;20032;-85
2021/01/31 14:26:19;;;;;;;32.10;17.27;;;;;;;;;;5039222;28;20041;-84
2021/01/31 14:28:45;;;;;;;37.95;18.65;;;;;;;;;;5040161;28;20037;-84
2021/01/31 14:31:11;;;;;;;32.55;16.60;;;;;;;;;;5038920;28;20037;-85
2021/01/31 14:33:37;;;;;;;26.95;15.27;;;;;;;;;;5039230;28;20060;-84
2021/01/31 14:36:03;;;;;;;27.45;16.33;;;;;;;;;;5040162;28;20048;-85
2021/01/31 14:38:29;;;;;;;26.17;14.93;;;;;;;;;;5040059;28;20021;-83
2021/01/31 14:40:55;;;;;;;29.63;16.42;;;;;;;;;;5040074;28;20033;-84
2021/01/31 14:43:21;;;;;;;26.73;14.77;;;;;;;;;;5040379;28;20041;-84
2021/01/31 14:45:47;;;;;;;24.52;14.50;;;;;;;;;;5039566;28;20029;-84
2021/01/31 14:48:32;;;;;;;27.23;15.18;;;;;;;;;;5039941;28;20033;-85
2021/01/31 14:50:58;;;;;;;25.42;15.02;;;;;;;;;;5037823;28;20037;-83
2021/01/31 14:53:24;;;;;;;23.88;13.80;;;;;;;;;;5028871;28;20116;-84
2021/01/31 14:55:50;;;;;;;24.92;14.88;;;;;;;;;;5026214;28;20084;-83
2021/01/31 14:58:16;;;;;;;25.25;14.73;;;;;;;;;;5019414;28;20030;-83
2021/01/31 15:00:43;;;;;;;31.30;16.83;;;;;;;;;;5018692;28;20025;-84
2021/01/31 15:03:12;;;;;;;30.13;16.25;;;;;;;;;;5018450;28;20033;-85
2021/01/31 15:05:43;;;;;;;29.15;15.40;;;;;;;;;;5019413;28;20029;-85
2021/01/31 15:08:09;;;;;;;32.58;17.25;;;;;;;;;;5002039;28;20443;-84
2021/01/31 15:10:36;;;;;;;23.45;14.30;;;;;;;;;;5019828;28;20034;-84
2021/01/31 15:13:02;;;;;;;36.67;20.10;;;;;;;;;;5019857;28;20022;-85
2021/01/31 15:15:29;;;;;;;31.58;17.35;;;;;;;;;;5018003;28;20041;-86
2021/01/31 15:20:58;;;;;;;53.00;25.63;;;;;;;;;;5028630;28;20125;-85
2021/01/31 15:23:26;;;;;;;31.55;18.05;;;;;;;;;;5036987;28;20434;-85